createdAt,value
2019-01-23T00:02:17.966Z,38.97
2019-01-23T00:04:48.475Z,42.17
2019-01-23T00:07:18.701Z,35.90
2019-01-23T00:09:48.793Z,37.30
2019-01-23T00:12:19.506Z,42.97
2019-01-23T00:14:49.679Z,40.77
2019-01-23T00:17:20.178Z,40.20
2019-01-23T00:19:50.387Z,39.67
2019-01-23T00:22:21.117Z,36.00
2019-01-23T00:24:51.274Z,41.30
2019-01-23T00:27:21.644Z,35.70
2019-01-23T00:29:51.747Z,36.30
2019-01-23T00:32:22.988Z,42.87
2019-01-23T00:34:53.073Z,37.13
2019-01-23T00:37:23.589Z,38.37
2019-01-23T00:39:54.124Z,38.73
2019-01-23T00:42:24.258Z,39.00
2019-01-23T00:44:54.721Z,40.13
2019-01-23T00:47:25.149Z,43.77
2019-01-23T00:49:55.183Z,40.77
2019-01-23T00:52:25.344Z,42.93
2019-01-23T00:54:55.701Z,39.00
2019-01-23T00:57:25.786Z,45.63
2019-01-23T00:59:56.853Z,42.07
2019-01-23T01:02:26.982Z,42.17
2019-01-23T01:04:57.189Z,40.60
2019-01-23T01:07:27.489Z,41.87
2019-01-23T01:09:57.611Z,44.27
2019-01-23T01:12:28.051Z,43.67
2019-01-23T01:14:58.177Z,45.07
2019-01-23T01:17:28.620Z,47.17
2019-01-23T01:19:58.228Z,49.07
2019-01-23T01:22:28.298Z,43.53
2019-01-23T01:24:58.505Z,42.90
2019-01-23T01:27:28.702Z,45.63
2019-01-23T01:29:58.978Z,45.53
2019-01-23T01:32:29.118Z,43.67
2019-01-23T01:35:00.063Z,46.37
2019-01-23T01:37:31.006Z,44.80
2019-01-23T01:40:01.239Z,43.17
2019-01-23T01:42:32.467Z,44.40
2019-01-23T01:45:02.586Z,44.63
2019-01-23T01:47:32.738Z,37.53
2019-01-23T01:50:03.026Z,38.70
2019-01-23T01:52:34.303Z,38.30
2019-01-23T01:55:06.467Z,42.20
2019-01-23T01:57:36.541Z,40.97
2019-01-23T02:00:12.635Z,42.37
2019-01-23T02:02:42.821Z,45.13
2019-01-23T02:05:12.985Z,48.90
2019-01-23T02:07:43.121Z,43.93
2019-01-23T02:10:15.383Z,45.87
2019-01-23T02:12:45.386Z,40.93
2019-01-23T02:15:16.238Z,45.20
2019-01-23T02:17:46.944Z,41.70
2019-01-23T02:20:24.931Z,41.20
2019-01-23T02:22:54.416Z,41.97
2019-01-23T02:25:24.610Z,39.13
2019-01-23T02:27:54.692Z,41.97
2019-01-23T02:30:26.157Z,42.40
2019-01-23T02:32:55.628Z,42.93
2019-01-23T02:35:26.024Z,35.00
2019-01-23T02:37:56.065Z,40.40
2019-01-23T02:40:26.139Z,33.77
2019-01-23T02:42:56.141Z,34.20
2019-01-23T02:45:26.507Z,30.37
2019-01-23T02:47:56.606Z,31.77
2019-01-23T02:50:28.726Z,33.70
2019-01-23T02:53:00.362Z,33.30
2019-01-23T02:55:30.471Z,36.40
2019-01-23T02:58:00.950Z,31.17
2019-01-23T03:00:31.418Z,30.77
2019-01-23T03:03:01.603Z,31.97
2019-01-23T03:05:32.167Z,31.97
2019-01-23T03:08:01.673Z,32.77
2019-01-23T03:10:31.786Z,32.07
2019-01-23T03:13:02.374Z,32.93
2019-01-23T03:15:31.984Z,34.27
2019-01-23T03:18:01.996Z,38.93
2019-01-23T03:20:32.120Z,43.37
2019-01-23T03:23:02.628Z,38.83
2019-01-23T03:25:32.832Z,39.77
2019-01-23T03:28:02.874Z,39.13
2019-01-23T03:30:32.967Z,40.07
2019-01-23T03:33:04.469Z,38.70
2019-01-23T03:35:34.495Z,39.60
2019-01-23T03:38:04.656Z,39.07
2019-01-23T03:40:35.077Z,35.63
2019-01-23T03:43:05.261Z,45.17
2019-01-23T03:45:35.739Z,41.43
2019-01-23T03:48:06.631Z,38.13
2019-01-23T03:50:37.172Z,40.23
2019-01-23T03:53:08.467Z,37.33
2019-01-23T03:55:38.824Z,35.00
2019-01-23T03:58:08.939Z,41.00
2019-01-23T04:00:39.354Z,37.87
2019-01-23T04:03:09.490Z,38.73
2019-01-23T04:05:39.671Z,39.17
2019-01-23T04:08:09.885Z,34.70
2019-01-23T04:10:40.343Z,38.53
2019-01-23T04:13:10.532Z,40.27
2019-01-23T04:15:40.953Z,42.30
2019-01-23T04:18:11.088Z,41.83
2019-01-23T04:20:41.159Z,41.97
2019-01-23T04:23:12.687Z,38.90
2019-01-23T04:25:46.742Z,41.33
2019-01-23T04:28:16.994Z,39.47
2019-01-23T04:30:48.156Z,38.10
2019-01-23T04:33:19.110Z,38.37
2019-01-23T04:35:49.878Z,38.97
2019-01-23T04:38:20.238Z,37.03
2019-01-23T04:40:50.386Z,36.33
2019-01-23T04:43:20.272Z,44.20
2019-01-23T04:45:50.427Z,38.30
2019-01-23T04:48:20.203Z,38.47
2019-01-23T04:51:07.738Z,40.97
2019-01-23T04:53:41.406Z,39.27
2019-01-23T04:56:11.637Z,34.67
2019-01-23T04:58:42.032Z,32.77
2019-01-23T05:01:12.290Z,38.77
2019-01-23T05:03:42.448Z,33.90
2019-01-23T05:06:12.586Z,33.90
2019-01-23T05:08:43.233Z,37.13
2019-01-23T05:11:12.797Z,37.10
2019-01-23T05:13:43.126Z,36.70
2019-01-23T05:16:13.263Z,41.37
2019-01-23T05:18:42.803Z,32.57
2019-01-23T05:21:12.879Z,34.13
2019-01-23T05:23:43.360Z,38.43
2019-01-23T05:26:14.700Z,38.60
2019-01-23T05:28:45.213Z,36.30
2019-01-23T05:31:15.489Z,31.63
2019-01-23T05:33:45.946Z,38.03
2019-01-23T05:36:16.188Z,42.17
2019-01-23T05:38:46.631Z,33.13
2019-01-23T05:41:16.944Z,37.73
2019-01-23T05:43:47.388Z,37.57
2019-01-23T05:46:17.631Z,43.27
2019-01-23T05:48:48.072Z,39.90
2019-01-23T05:51:18.300Z,37.73
2019-01-23T05:53:49.886Z,34.67
2019-01-23T05:56:19.909Z,37.23
2019-01-23T05:58:50.058Z,36.50
2019-01-23T06:01:20.621Z,33.30
2019-01-23T06:03:50.653Z,29.93
2019-01-23T06:06:20.835Z,31.40
2019-01-23T06:08:50.421Z,31.70
2019-01-23T06:11:21.403Z,34.90
2019-01-23T06:13:52.053Z,29.63
2019-01-23T06:16:23.773Z,35.30
2019-01-23T06:18:54.659Z,32.10
2019-01-23T06:21:24.832Z,33.33
2019-01-23T06:23:57.466Z,31.20
2019-01-23T06:26:27.487Z,24.70
2019-01-23T06:28:58.119Z,24.10
2019-01-23T06:31:27.835Z,24.60
2019-01-23T06:33:58.876Z,24.93
2019-01-23T06:36:30.447Z,25.33
2019-01-23T06:39:00.950Z,24.87
2019-01-23T06:41:31.817Z,21.57
2019-01-23T06:44:01.428Z,26.27
2019-01-23T06:46:33.277Z,26.87
2019-01-23T06:49:03.895Z,21.70
2019-01-23T06:51:33.964Z,25.70
2019-01-23T06:54:04.602Z,25.60
2019-01-23T06:56:34.837Z,22.63
2019-01-23T06:59:07.653Z,21.70
2019-01-23T07:01:37.884Z,22.13
2019-01-23T07:04:10.185Z,27.50
2019-01-23T07:06:40.831Z,18.73
2019-01-23T07:09:11.129Z,27.50
2019-01-23T07:11:51.207Z,23.90
2019-01-23T07:14:21.542Z,21.47
2019-01-23T07:16:51.168Z,26.20
2019-01-23T07:19:21.469Z,21.47
2019-01-23T07:21:51.833Z,28.90
2019-01-23T07:24:22.999Z,28.67
2019-01-23T07:26:53.286Z,20.93
2019-01-23T07:29:23.703Z,24.57
2019-01-23T07:31:53.973Z,21.77
2019-01-23T07:34:23.608Z,26.80
2019-01-23T07:36:53.744Z,25.87
2019-01-23T07:39:24.158Z,22.73
2019-01-23T07:41:54.723Z,22.97
2019-01-23T07:44:26.157Z,22.07
2019-01-23T07:46:56.895Z,30.87
2019-01-23T07:49:27.346Z,21.90
2019-01-23T07:51:57.203Z,24.27
2019-01-23T07:54:26.715Z,34.33
2019-01-23T07:57:00.567Z,26.70
2019-01-23T07:59:30.148Z,23.63
2019-01-23T08:02:01.589Z,25.57
2019-01-23T08:04:32.451Z,22.30
2019-01-23T08:07:03.086Z,22.70
2019-01-23T08:09:33.324Z,22.80
2019-01-23T08:12:10.549Z,23.33
2019-01-23T08:14:36.485Z,24.70
2019-01-23T08:17:07.123Z,21.73
2019-01-23T08:19:36.944Z,21.70
2019-01-23T08:22:06.845Z,24.47
2019-01-23T08:24:37.542Z,28.17
2019-01-23T08:27:08.041Z,23.87
2019-01-23T08:29:40.013Z,19.93
2019-01-23T08:32:10.565Z,27.80
2019-01-23T08:34:42.079Z,24.27
2019-01-23T08:37:11.795Z,19.63
2019-01-23T08:39:41.353Z,21.33
2019-01-23T08:42:13.039Z,24.27
2019-01-23T08:44:43.021Z,20.30
2019-01-23T08:47:13.670Z,18.87
2019-01-23T08:49:43.156Z,24.63
2019-01-23T08:52:13.731Z,23.63
2019-01-23T08:54:43.330Z,21.33
2019-01-23T08:57:14.827Z,19.47
2019-01-23T08:59:45.299Z,20.20
2019-01-23T09:02:15.892Z,24.37
2019-01-23T09:04:45.479Z,19.70
2019-01-23T09:07:16.141Z,19.37
2019-01-23T09:09:46.613Z,17.23
2019-01-23T09:12:16.757Z,17.63
2019-01-23T09:14:46.295Z,15.37
2019-01-23T09:17:15.867Z,17.63
2019-01-23T09:19:46.502Z,22.00
2019-01-23T09:22:17.138Z,16.30
2019-01-23T09:24:47.304Z,31.07
2019-01-23T09:27:17.540Z,16.67
2019-01-23T09:29:47.356Z,18.73
2019-01-23T09:33:08.135Z,14.57
2019-01-23T09:36:03.476Z,16.67
2019-01-23T09:39:00.325Z,14.40
2019-01-23T09:41:58.108Z,13.57
2019-01-23T09:44:46.447Z,18.53
2019-01-23T09:47:33.457Z,14.77
2019-01-23T09:50:07.083Z,12.33
2019-01-23T09:53:19.532Z,13.50
2019-01-23T09:55:50.684Z,15.97
2019-01-23T09:58:20.815Z,16.20
2019-01-23T10:00:50.934Z,21.03
2019-01-23T10:03:23.079Z,23.80
2019-01-23T10:05:52.975Z,17.83
2019-01-23T10:08:23.481Z,12.33
2019-01-23T10:10:53.051Z,10.80
2019-01-23T10:13:23.189Z,12.97
2019-01-23T10:16:04.169Z,11.50
2019-01-23T10:18:42.054Z,12.40
2019-01-23T10:21:13.011Z,13.10
2019-01-23T10:23:43.847Z,12.17
2019-01-23T10:26:14.186Z,13.50
2019-01-23T10:28:45.182Z,15.20
2019-01-23T10:31:14.804Z,20.87
2019-01-23T10:33:44.338Z,16.37
2019-01-23T10:36:16.884Z,20.43
2019-01-23T10:38:47.152Z,18.17
2019-01-23T10:41:17.989Z,20.97
2019-01-23T10:43:48.216Z,19.60
2019-01-23T10:46:19.738Z,19.90
2019-01-23T10:48:49.652Z,19.07
2019-01-23T10:51:20.771Z,20.53
2019-01-23T10:53:50.810Z,22.73
2019-01-23T10:56:21.295Z,22.43
2019-01-23T10:58:51.433Z,26.27
2019-01-23T11:01:21.472Z,24.57
2019-01-23T11:03:54.094Z,23.70
2019-01-23T11:06:24.157Z,27.57
2019-01-23T11:08:54.802Z,31.40
2019-01-23T11:11:25.789Z,28.90
2019-01-23T11:13:56.857Z,30.57
2019-01-23T11:16:28.206Z,30.83
2019-01-23T11:18:58.436Z,32.33
2019-01-23T11:21:30.716Z,31.13
2019-01-23T11:24:02.439Z,28.03
2019-01-23T11:26:32.647Z,28.87
2019-01-23T11:29:03.014Z,23.87
2019-01-23T11:31:34.165Z,28.20
2019-01-23T11:34:04.386Z,29.63
2019-01-23T11:36:34.598Z,28.80
2019-01-23T11:39:09.355Z,31.93
2019-01-23T11:41:39.524Z,32.93
2019-01-23T11:44:10.980Z,36.63
2019-01-23T11:46:42.559Z,35.03
2019-01-23T11:49:13.198Z,28.00
2019-01-23T11:51:43.484Z,28.53
2019-01-23T11:54:13.708Z,25.10
2019-01-23T11:56:44.634Z,31.07
2019-01-23T11:59:15.965Z,32.70
2019-01-23T12:01:48.054Z,29.00
2019-01-23T12:04:20.135Z,30.83
2019-01-23T12:06:50.357Z,33.37
2019-01-23T12:09:22.963Z,29.23
2019-01-23T12:11:53.151Z,36.33
2019-01-23T12:14:24.636Z,28.40
2019-01-23T12:16:55.203Z,28.77
2019-01-23T12:19:25.371Z,27.97
2019-01-23T12:21:56.427Z,28.63
2019-01-23T12:24:28.830Z,26.67
2019-01-23T12:27:00.861Z,30.03
2019-01-23T12:29:31.822Z,29.77
2019-01-23T12:32:02.295Z,28.23
2019-01-23T12:34:32.486Z,27.93
2019-01-23T12:37:03.206Z,26.93
2019-01-23T12:39:33.565Z,32.57
2019-01-23T12:42:04.957Z,32.37
2019-01-23T12:44:35.552Z,31.97
2019-01-23T12:47:07.070Z,32.63
2019-01-23T12:49:37.611Z,33.03
2019-01-23T12:52:09.347Z,32.97
2019-01-23T12:54:39.352Z,41.30
2019-01-23T12:57:10.467Z,33.93
2019-01-23T12:59:40.635Z,37.07
2019-01-23T13:02:12.566Z,31.33
2019-01-23T13:04:45.564Z,32.33
2019-01-23T13:07:15.655Z,31.80
2019-01-23T13:09:46.650Z,32.53
2019-01-23T13:12:16.782Z,31.67
2019-01-23T13:14:46.883Z,32.50
2019-01-23T13:17:17.932Z,34.90
2019-01-23T13:19:49.176Z,33.97
2019-01-23T13:22:19.915Z,31.80
2019-01-23T13:24:50.464Z,32.83
2019-01-23T13:27:20.661Z,30.90
2019-01-23T13:29:50.947Z,31.43
2019-01-23T13:32:21.324Z,31.67
2019-01-23T13:34:51.692Z,32.27
2019-01-23T13:37:22.293Z,30.00
2019-01-23T13:39:52.389Z,29.80
2019-01-23T13:42:22.594Z,30.77
2019-01-23T13:44:54.292Z,31.20
2019-01-23T13:47:24.803Z,31.13
2019-01-23T13:49:55.050Z,30.97
2019-01-23T13:52:26.293Z,26.43
2019-01-23T13:54:57.024Z,32.90
2019-01-23T13:57:30.497Z,31.80
2019-01-23T14:00:03.786Z,30.90
2019-01-23T14:02:34.027Z,29.67
2019-01-23T14:05:04.764Z,26.80
2019-01-23T14:07:34.911Z,32.33
2019-01-23T14:10:05.537Z,28.93
2019-01-23T14:12:35.831Z,27.60
2019-01-23T14:15:08.871Z,25.20
2019-01-23T14:17:41.216Z,25.50
2019-01-23T14:20:12.815Z,31.03
2019-01-23T14:22:43.756Z,32.40
2019-01-23T14:25:18.620Z,31.53
2019-01-23T14:27:51.861Z,31.57
2019-01-23T14:30:31.444Z,30.53
2019-01-23T14:33:01.602Z,29.03
2019-01-23T14:35:33.642Z,31.83
2019-01-23T14:38:04.555Z,33.07
2019-01-23T14:40:35.060Z,32.53
2019-01-23T14:43:06.381Z,32.13
2019-01-23T14:45:36.584Z,40.33
2019-01-23T14:48:07.082Z,31.67
2019-01-23T14:50:37.499Z,35.30
2019-01-23T14:53:08.167Z,35.90
2019-01-23T14:55:40.277Z,34.73
2019-01-23T14:58:10.521Z,31.80
2019-01-23T15:00:40.617Z,34.33
2019-01-23T15:03:12.131Z,38.67
2019-01-23T15:05:42.422Z,36.47
2019-01-23T15:08:15.834Z,38.23
2019-01-23T15:10:46.247Z,33.63
2019-01-23T15:13:17.728Z,32.17
2019-01-23T15:15:48.268Z,33.13
2019-01-23T15:18:18.434Z,39.70
2019-01-23T15:20:48.964Z,36.90
2019-01-23T15:23:19.272Z,40.50
2019-01-23T15:25:49.114Z,35.10
2019-01-23T15:28:19.093Z,34.23
2019-01-23T15:30:49.258Z,37.93
2019-01-23T15:33:19.538Z,38.40
2019-01-23T15:35:52.194Z,40.97
2019-01-23T15:38:23.584Z,32.90
2019-01-23T15:40:53.801Z,35.40
2019-01-23T15:43:24.040Z,39.57
2019-01-23T15:45:55.959Z,31.97
2019-01-23T15:48:26.307Z,31.20
2019-01-23T15:50:56.583Z,38.03
2019-01-23T15:53:28.733Z,37.67
2019-01-23T15:55:59.229Z,39.80
2019-01-23T15:58:29.437Z,44.70
2019-01-23T16:00:59.035Z,35.53
2019-01-23T16:03:29.594Z,40.23
2019-01-23T16:06:02.742Z,37.30
2019-01-23T16:08:33.164Z,37.10
2019-01-23T16:11:03.652Z,37.37
2019-01-23T16:13:34.580Z,41.33
2019-01-23T16:16:04.878Z,28.20
2019-01-23T16:18:37.022Z,41.93
2019-01-23T16:21:07.433Z,44.73
2019-01-23T16:23:38.376Z,44.93
2019-01-23T16:26:10.194Z,42.57
2019-01-23T16:28:40.563Z,40.97
2019-01-23T16:31:12.405Z,46.27
2019-01-23T16:33:42.837Z,45.87
2019-01-23T16:36:13.311Z,45.47
2019-01-23T16:38:43.562Z,41.40
2019-01-23T16:41:14.111Z,46.37
2019-01-23T16:43:44.311Z,43.03
2019-01-23T16:46:14.573Z,44.83
2019-01-23T16:48:44.876Z,44.93
2019-01-23T16:51:15.429Z,41.53
2019-01-23T16:53:45.621Z,49.40
2019-01-23T16:56:15.349Z,43.57
2019-01-23T16:58:45.551Z,48.13
2019-01-23T17:01:15.866Z,46.60
2019-01-23T17:03:46.162Z,43.50
2019-01-23T17:06:16.505Z,49.60
2019-01-23T17:08:48.309Z,41.53
2019-01-23T17:11:19.574Z,42.73
2019-01-23T17:13:51.074Z,49.20
2019-01-23T17:16:21.500Z,48.70
2019-01-23T17:18:51.720Z,43.10
2019-01-23T17:21:23.516Z,48.43
2019-01-23T17:23:54.053Z,51.17
2019-01-23T17:26:25.597Z,50.03
2019-01-23T17:28:55.739Z,47.10
2019-01-23T17:31:26.003Z,43.37
2019-01-23T17:33:57.297Z,44.60
2019-01-23T17:36:27.511Z,45.93
2019-01-23T17:38:58.774Z,48.13
2019-01-23T17:41:31.014Z,46.90
2019-01-23T17:44:01.601Z,48.13
2019-01-23T17:46:34.397Z,49.30
2019-01-23T17:49:05.630Z,36.63
2019-01-23T17:51:36.023Z,46.67
2019-01-23T17:54:06.286Z,46.20
2019-01-23T17:56:36.500Z,44.87
2019-01-23T17:59:07.109Z,34.20
2019-01-23T18:01:37.421Z,48.57
2019-01-23T18:04:07.734Z,39.93
2019-01-23T18:06:38.277Z,42.93
2019-01-23T18:09:10.820Z,43.47
2019-01-23T18:11:42.604Z,48.43
2019-01-23T18:14:12.787Z,47.90
2019-01-23T18:16:44.041Z,44.83
2019-01-23T18:19:16.072Z,39.70
2019-01-23T18:21:46.349Z,44.63
2019-01-23T18:24:16.767Z,49.80
2019-01-23T18:26:47.542Z,47.43
2019-01-23T18:29:17.874Z,45.10
2019-01-23T18:31:53.399Z,49.87
2019-01-23T18:35:04.804Z,47.73
2019-01-23T18:38:03.512Z,44.57
2019-01-23T18:40:52.964Z,49.37
2019-01-23T18:44:11.899Z,45.97
2019-01-23T18:47:10.615Z,52.90
2019-01-23T18:50:18.114Z,48.20
2019-01-23T18:52:49.409Z,45.10
2019-01-23T18:55:21.220Z,48.53
2019-01-23T18:57:51.492Z,49.33
2019-01-23T19:00:22.483Z,53.33
2019-01-23T19:02:52.680Z,47.07
2019-01-23T19:05:23.392Z,51.00
2019-01-23T19:07:53.540Z,49.33
2019-01-23T19:10:23.808Z,45.67
2019-01-23T19:12:54.572Z,51.10
2019-01-23T19:15:25.021Z,43.83
2019-01-23T19:17:57.127Z,47.40
2019-01-23T19:20:27.665Z,48.03
2019-01-23T19:22:57.801Z,47.40
2019-01-23T19:25:29.782Z,47.37
2019-01-23T19:28:00.303Z,45.23
2019-01-23T19:30:30.443Z,46.43
2019-01-23T19:33:00.675Z,47.97
2019-01-23T19:35:31.717Z,46.73
2019-01-23T19:38:01.831Z,45.10
2019-01-23T19:40:32.349Z,44.57
2019-01-23T19:43:02.713Z,47.70
2019-01-23T19:45:33.962Z,46.33
2019-01-23T19:48:04.398Z,45.30
2019-01-23T19:50:35.023Z,42.03
2019-01-23T19:53:05.305Z,45.87
2019-01-23T19:55:35.944Z,46.43
2019-01-23T19:58:06.132Z,46.67
2019-01-23T20:00:36.228Z,48.10
2019-01-23T20:03:06.572Z,48.17
2019-01-23T20:05:36.594Z,48.67
2019-01-23T20:08:07.054Z,46.53
2019-01-23T20:10:38.272Z,47.63
2019-01-23T20:13:07.943Z,44.93
2019-01-23T20:15:38.399Z,47.90
2019-01-23T20:18:09.955Z,40.47
2019-01-23T20:20:40.041Z,43.23
2019-01-23T20:23:10.376Z,44.50
2019-01-23T20:25:40.459Z,42.00
2019-01-23T20:28:13.248Z,51.40
2019-01-23T20:30:46.825Z,42.93
2019-01-23T20:33:17.135Z,44.77
2019-01-23T20:35:47.379Z,44.50
2019-01-23T20:38:17.807Z,49.67
2019-01-23T20:40:48.028Z,49.97
2019-01-23T20:43:20.871Z,45.70
2019-01-23T20:45:51.128Z,44.03
2019-01-23T20:48:21.363Z,45.97
2019-01-23T20:50:53.614Z,44.80
2019-01-23T20:53:23.868Z,46.63
2019-01-23T20:55:55.357Z,40.43
2019-01-23T20:58:25.569Z,46.23
2019-01-23T21:00:56.138Z,41.90
2019-01-23T21:03:26.271Z,43.30
2019-01-23T21:05:56.784Z,50.37
2019-01-23T21:08:27.247Z,43.77
2019-01-23T21:10:57.979Z,48.00
2019-01-23T21:13:30.364Z,48.53
2019-01-23T21:16:00.912Z,44.20
2019-01-23T21:18:30.995Z,43.83
2019-01-23T21:21:01.657Z,45.23
2019-01-23T21:23:31.844Z,43.93
2019-01-23T21:26:02.077Z,44.17
2019-01-23T21:28:32.181Z,49.33
2019-01-23T21:31:03.008Z,46.23
2019-01-23T21:33:33.084Z,42.43
2019-01-23T21:36:03.405Z,44.30
2019-01-23T21:38:33.735Z,46.87
2019-01-23T21:41:03.934Z,44.37
2019-01-23T21:43:36.431Z,47.80
2019-01-23T21:46:06.648Z,44.50
2019-01-23T21:48:37.199Z,46.93
2019-01-23T21:51:07.458Z,48.57
2019-01-23T21:53:37.601Z,40.13
2019-01-23T21:56:09.879Z,42.50
2019-01-23T21:58:39.982Z,42.83
2019-01-23T22:01:10.099Z,45.80
2019-01-23T22:03:40.207Z,43.83
2019-01-23T22:06:10.385Z,42.23
2019-01-23T22:08:40.481Z,42.80
2019-01-23T22:11:10.643Z,46.17
2019-01-23T22:13:40.714Z,45.50
2019-01-23T22:16:10.888Z,38.97
2019-01-23T22:18:41.103Z,44.27
2019-01-23T22:21:12.315Z,45.47
2019-01-23T22:23:42.485Z,45.43
2019-01-23T22:26:12.630Z,43.27
2019-01-23T22:28:42.851Z,47.13
2019-01-23T22:31:12.979Z,39.57
2019-01-23T22:33:44.293Z,43.57
2019-01-23T22:36:14.982Z,46.17
2019-01-23T22:38:45.170Z,43.40
2019-01-23T22:41:17.691Z,45.10
2019-01-23T22:43:47.876Z,41.53
2019-01-23T22:46:18.236Z,51.97
2019-01-23T22:48:48.422Z,46.80
2019-01-23T22:51:18.624Z,44.70
2019-01-23T22:53:49.275Z,46.63
2019-01-23T22:56:19.360Z,46.13
2019-01-23T22:58:50.779Z,44.73
2019-01-23T23:01:27.873Z,47.27
2019-01-23T23:04:03.547Z,45.27
2019-01-23T23:06:35.028Z,52.40
2019-01-23T23:09:10.320Z,43.93
2019-01-23T23:11:40.661Z,45.43
2019-01-23T23:14:10.851Z,47.70
2019-01-23T23:16:41.337Z,46.70
2019-01-23T23:19:11.481Z,49.23
2019-01-23T23:21:41.671Z,50.07
2019-01-23T23:24:12.183Z,49.93
2019-01-23T23:26:42.358Z,47.47
2019-01-23T23:29:12.729Z,50.10
2019-01-23T23:31:42.949Z,46.60
2019-01-23T23:34:13.887Z,51.63
2019-01-23T23:36:44.316Z,48.13
2019-01-23T23:39:14.519Z,48.97
2019-01-23T23:41:44.598Z,51.47
2019-01-23T23:44:15.136Z,49.33
2019-01-23T23:46:45.415Z,49.00
2019-01-23T23:49:16.076Z,50.03
2019-01-23T23:51:46.180Z,48.20
2019-01-23T23:54:16.333Z,49.97
2019-01-23T23:56:46.821Z,43.77
2019-01-23T23:59:17.154Z,42.77
